createdAt,value
2018-07-14T00:02:23.087Z,13.27
2018-07-14T00:04:51.562Z,12.93
2018-07-14T00:07:20.107Z,13.17
2018-07-14T00:09:48.673Z,12.30
2018-07-14T00:12:17.360Z,12.35
2018-07-14T00:14:45.776Z,12.80
2018-07-14T00:17:14.458Z,14.18
2018-07-14T00:19:42.898Z,12.50
2018-07-14T00:22:11.421Z,11.95
2018-07-14T00:24:39.876Z,13.60
2018-07-14T00:27:08.300Z,12.40
2018-07-14T00:29:36.769Z,11.83
2018-07-14T00:32:05.872Z,13.50
2018-07-14T00:34:34.375Z,12.80
2018-07-14T00:37:02.835Z,12.40
2018-07-14T00:39:31.331Z,13.33
2018-07-14T00:41:59.903Z,13.20
2018-07-14T00:44:28.361Z,12.83
2018-07-14T00:46:56.812Z,13.40
2018-07-14T00:49:25.260Z,12.95
2018-07-14T00:51:53.847Z,13.50
2018-07-14T00:54:22.323Z,11.93
2018-07-14T00:56:50.786Z,14.03
2018-07-14T00:59:19.195Z,13.80
2018-07-14T01:01:47.641Z,13.23
2018-07-14T01:04:16.102Z,13.73
2018-07-14T01:06:44.548Z,15.50
2018-07-14T01:09:13.019Z,14.53
2018-07-14T01:11:41.462Z,14.27
2018-07-14T01:14:10.147Z,12.90
2018-07-14T01:16:38.859Z,12.80
2018-07-14T01:19:07.330Z,13.10
2018-07-14T01:21:35.886Z,12.47
2018-07-14T01:24:04.346Z,13.58
2018-07-14T01:26:32.811Z,12.27
2018-07-14T01:29:01.275Z,12.40
2018-07-14T01:31:29.721Z,11.88
2018-07-14T01:33:58.227Z,12.90
2018-07-14T01:36:26.686Z,13.62
2018-07-14T01:38:55.111Z,13.50
2018-07-14T01:41:23.578Z,14.37
2018-07-14T01:43:52.044Z,12.47
2018-07-14T01:46:20.507Z,13.13
2018-07-14T01:48:48.984Z,13.47
2018-07-14T01:51:17.464Z,13.13
2018-07-14T01:53:45.942Z,14.13
2018-07-14T01:56:14.371Z,14.23
2018-07-14T01:58:42.900Z,13.80
2018-07-14T02:01:11.380Z,15.37
2018-07-14T02:07:11.116Z,16.10
2018-07-14T02:09:39.560Z,15.13
2018-07-14T02:12:08.399Z,15.43
2018-07-14T02:14:36.869Z,16.30
2018-07-14T02:17:05.286Z,17.23
2018-07-14T02:19:33.774Z,14.87
2018-07-14T02:22:02.191Z,14.23
2018-07-14T02:24:30.671Z,16.20
2018-07-14T02:26:59.264Z,15.47
2018-07-14T02:29:27.701Z,16.15
2018-07-14T02:31:56.209Z,16.63
2018-07-14T02:34:24.702Z,15.47
2018-07-14T02:36:53.225Z,14.80
2018-07-14T02:39:21.698Z,15.47
2018-07-14T02:41:50.206Z,16.30
2018-07-14T02:44:18.671Z,16.62
2018-07-14T02:46:47.110Z,15.63
2018-07-14T02:49:15.644Z,16.47
2018-07-14T02:51:44.146Z,16.13
2018-07-14T02:54:12.755Z,17.00
2018-07-14T02:56:41.229Z,15.40
2018-07-14T02:59:09.672Z,16.43
2018-07-14T03:01:38.324Z,16.48
2018-07-14T03:04:06.791Z,15.40
2018-07-14T03:06:35.267Z,16.50
2018-07-14T03:09:04.780Z,16.57
2018-07-14T03:11:33.236Z,14.40
2018-07-14T03:14:01.692Z,16.40
2018-07-14T03:16:30.152Z,15.93
2018-07-14T03:18:58.699Z,16.20
2018-07-14T03:21:27.165Z,15.60
2018-07-14T03:23:55.576Z,15.10
2018-07-14T03:26:24.005Z,16.17
2018-07-14T03:28:52.480Z,16.53
2018-07-14T03:31:20.957Z,15.97
2018-07-14T03:33:49.500Z,16.13
2018-07-14T03:36:17.979Z,14.90
2018-07-14T03:38:46.415Z,16.07
2018-07-14T03:41:15.198Z,16.20
2018-07-14T03:43:43.632Z,16.87
2018-07-14T03:46:12.041Z,15.53
2018-07-14T03:48:40.486Z,16.90
2018-07-14T03:51:08.923Z,16.03
2018-07-14T03:53:37.403Z,17.57
2018-07-14T03:56:06.399Z,17.50
2018-07-14T03:58:34.832Z,16.07
2018-07-14T04:01:03.308Z,17.90
2018-07-14T04:03:31.731Z,15.30
2018-07-14T04:06:00.199Z,16.83
2018-07-14T04:08:28.627Z,16.97
2018-07-14T04:10:57.084Z,15.60
2018-07-14T04:13:25.551Z,17.10
2018-07-14T04:15:53.987Z,17.00
2018-07-14T04:18:22.443Z,18.52
2018-07-14T04:20:50.927Z,18.63
2018-07-14T04:23:19.358Z,16.50
2018-07-14T04:25:47.830Z,16.03
2018-07-14T04:28:16.298Z,16.63
2018-07-14T04:30:44.762Z,15.67
2018-07-14T04:33:13.162Z,18.10
2018-07-14T04:35:41.815Z,16.87
2018-07-14T04:38:40.933Z,17.27
2018-07-14T04:41:09.387Z,17.43
2018-07-14T04:43:37.880Z,16.10
2018-07-14T04:46:06.702Z,16.17
2018-07-14T04:48:35.172Z,17.73
2018-07-14T04:51:03.651Z,18.93
2018-07-14T04:53:32.077Z,19.03
2018-07-14T04:56:00.547Z,19.10
2018-07-14T04:58:28.988Z,17.55
2018-07-14T05:00:57.520Z,17.90
2018-07-14T05:03:25.961Z,19.63
2018-07-14T05:05:54.666Z,19.57
2018-07-14T05:08:23.376Z,18.93
2018-07-14T05:10:52.316Z,18.63
2018-07-14T05:13:20.834Z,19.17
2018-07-14T05:15:49.306Z,18.90
2018-07-14T05:18:17.775Z,20.27
2018-07-14T05:20:46.220Z,18.53
2018-07-14T05:23:14.690Z,18.37
2018-07-14T05:25:43.151Z,18.40
2018-07-14T05:28:11.779Z,16.20
2018-07-14T05:30:40.235Z,13.40
2018-07-14T05:33:08.672Z,15.87
2018-07-14T05:35:37.141Z,16.40
2018-07-14T05:38:05.589Z,12.17
2018-07-14T05:40:34.050Z,15.88
2018-07-14T05:43:02.735Z,16.20
2018-07-14T05:45:31.225Z,15.57
2018-07-14T05:47:59.663Z,16.40
2018-07-14T05:50:28.092Z,15.67
2018-07-14T05:52:56.521Z,16.02
2018-07-14T05:55:25.639Z,12.53
2018-07-14T05:57:54.071Z,12.10
2018-07-14T06:00:22.506Z,13.40
2018-07-14T06:02:50.914Z,12.17
2018-07-14T06:05:19.375Z,11.83
2018-07-14T06:07:47.799Z,12.87
2018-07-14T06:10:16.252Z,12.40
2018-07-14T06:12:44.714Z,14.73
2018-07-14T06:15:13.303Z,13.60
2018-07-14T06:17:41.758Z,12.20
2018-07-14T06:20:10.779Z,12.30
2018-07-14T06:22:39.320Z,12.53
2018-07-14T06:25:08.402Z,12.63
2018-07-14T06:27:37.167Z,13.38
2018-07-14T06:30:07.394Z,13.13
2018-07-14T06:32:35.827Z,12.03
2018-07-14T06:35:04.445Z,12.93
2018-07-14T06:37:32.918Z,11.10
2018-07-14T06:40:01.496Z,11.10
2018-07-14T06:42:29.923Z,11.60
2018-07-14T06:44:58.606Z,11.53
2018-07-14T06:47:27.011Z,11.27
2018-07-14T06:49:55.480Z,11.25
2018-07-14T06:52:23.900Z,9.93
2018-07-14T06:54:53.351Z,10.23
2018-07-14T06:57:21.834Z,10.90
2018-07-14T06:59:50.272Z,10.40
2018-07-14T07:02:18.759Z,12.00
2018-07-14T07:04:47.167Z,14.60
2018-07-14T07:07:15.868Z,10.73
2018-07-14T07:09:44.309Z,9.73
2018-07-14T07:12:12.901Z,9.93
2018-07-14T07:14:41.637Z,9.57
2018-07-14T07:17:10.292Z,9.88
2018-07-14T07:19:39.023Z,10.23
2018-07-14T07:22:07.427Z,11.12
2018-07-14T07:24:35.816Z,10.00
2018-07-14T07:27:04.272Z,9.50
2018-07-14T07:29:32.737Z,9.50
2018-07-14T07:32:01.163Z,10.40
2018-07-14T07:34:29.688Z,8.97
2018-07-14T07:36:58.271Z,8.80
2018-07-14T07:39:26.719Z,8.80
2018-07-14T07:41:55.225Z,9.07
2018-07-14T07:44:23.656Z,9.60
2018-07-14T07:46:52.113Z,8.13
2018-07-14T07:49:20.574Z,8.70
2018-07-14T07:51:48.989Z,8.30
2018-07-14T07:54:17.807Z,9.17
2018-07-14T07:56:46.299Z,8.40
2018-07-14T07:59:14.699Z,8.38
2018-07-14T08:01:43.180Z,10.47
2018-07-14T08:04:11.663Z,10.03
2018-07-14T08:06:40.089Z,9.53
2018-07-14T08:09:09.058Z,10.60
2018-07-14T08:11:37.486Z,9.50
2018-07-14T08:14:06.182Z,9.80
2018-07-14T08:16:34.627Z,10.15
2018-07-14T08:19:03.183Z,9.77
2018-07-14T08:21:31.631Z,10.33
2018-07-14T08:24:00.041Z,9.33
2018-07-14T08:26:28.586Z,9.40
2018-07-14T08:28:56.980Z,9.03
2018-07-14T08:31:25.427Z,8.53
2018-07-14T08:33:53.880Z,9.20
2018-07-14T08:36:22.328Z,7.83
2018-07-14T08:38:50.776Z,8.13
2018-07-14T08:41:19.211Z,8.55
2018-07-14T08:43:47.685Z,11.63
2018-07-14T08:46:16.107Z,9.83
2018-07-14T08:48:44.736Z,9.30
2018-07-14T08:51:13.531Z,9.70
2018-07-14T08:53:41.890Z,10.13
2018-07-14T08:56:10.355Z,8.93
2018-07-14T08:58:38.889Z,8.73
2018-07-14T09:01:08.219Z,8.08
2018-07-14T09:03:36.668Z,8.40
2018-07-14T09:06:05.496Z,7.63
2018-07-14T09:08:33.893Z,7.67
2018-07-14T09:11:02.325Z,7.13
2018-07-14T09:13:30.772Z,7.20
2018-07-14T09:15:59.207Z,7.40
2018-07-14T09:19:30.329Z,7.17
2018-07-14T09:21:58.973Z,6.83
2018-07-14T09:24:27.397Z,6.60
2018-07-14T09:26:55.859Z,6.43
2018-07-14T09:29:24.324Z,6.27
2018-07-14T09:31:52.765Z,6.47
2018-07-14T09:34:21.195Z,5.22
2018-07-14T09:36:49.728Z,5.40
2018-07-14T09:39:18.192Z,6.33
2018-07-14T09:41:46.617Z,6.00
2018-07-14T09:44:15.460Z,6.20
2018-07-14T09:46:43.893Z,5.73
2018-07-14T09:49:12.561Z,5.97
2018-07-14T09:51:41.299Z,5.65
2018-07-14T09:54:09.714Z,5.90
2018-07-14T09:56:38.175Z,5.00
2018-07-14T09:59:06.639Z,5.60
2018-07-14T10:01:35.086Z,5.43
2018-07-14T10:04:03.547Z,6.07
2018-07-14T10:06:31.972Z,5.50
2018-07-14T10:09:14.880Z,5.07
2018-07-14T10:11:43.326Z,5.80
2018-07-14T10:14:12.019Z,4.93
2018-07-14T10:16:40.486Z,5.40
2018-07-14T10:19:09.081Z,4.80
2018-07-14T10:21:37.619Z,5.20
2018-07-14T10:24:06.400Z,5.53
2018-07-14T10:26:34.882Z,4.95
2018-07-14T10:29:03.414Z,4.83
2018-07-14T10:31:32.153Z,4.77
2018-07-14T10:34:01.052Z,4.43
2018-07-14T10:36:29.635Z,4.45
2018-07-14T10:38:58.115Z,4.37
2018-07-14T10:41:26.555Z,4.90
2018-07-14T10:43:55.010Z,4.50
2018-07-14T10:46:23.451Z,5.23
2018-07-14T10:48:51.982Z,7.70
2018-07-14T10:51:20.434Z,5.10
2018-07-14T10:53:48.871Z,4.60
2018-07-14T10:56:17.294Z,4.73
2018-07-14T10:58:45.699Z,4.10
2018-07-14T11:01:14.139Z,5.37
2018-07-14T11:03:42.551Z,4.60
2018-07-14T11:06:11.016Z,5.17
2018-07-14T11:08:39.539Z,4.90
2018-07-14T11:11:07.967Z,4.37
2018-07-14T11:13:36.393Z,3.90
2018-07-14T11:16:04.806Z,4.40
2018-07-14T11:18:33.564Z,4.67
2018-07-14T11:21:02.301Z,4.23
2018-07-14T11:23:30.760Z,4.67
2018-07-14T11:25:59.484Z,4.47
2018-07-14T11:28:27.928Z,4.70
2018-07-14T11:30:56.357Z,4.43
2018-07-14T11:33:24.803Z,4.33
2018-07-14T11:35:53.259Z,4.47
2018-07-14T11:38:21.768Z,4.33
2018-07-14T11:40:50.305Z,4.43
2018-07-14T11:43:18.939Z,3.90
2018-07-14T11:45:47.397Z,5.08
2018-07-14T11:48:15.822Z,4.07
2018-07-14T11:50:44.271Z,3.95
2018-07-14T11:53:12.889Z,5.13
2018-07-14T11:55:41.342Z,4.58
2018-07-14T11:58:09.771Z,3.50
2018-07-14T12:00:38.204Z,4.03
2018-07-14T12:03:07.007Z,3.65
2018-07-14T12:05:35.467Z,3.37
2018-07-14T12:08:03.945Z,3.23
2018-07-14T12:10:32.348Z,3.50
2018-07-14T12:13:00.908Z,3.87
2018-07-14T12:15:29.355Z,3.73
2018-07-14T12:17:57.787Z,4.20
2018-07-14T12:20:26.269Z,3.90
2018-07-14T12:22:54.739Z,3.37
2018-07-14T12:25:23.199Z,3.33
2018-07-14T12:27:51.628Z,3.37
2018-07-14T12:30:20.157Z,3.87
2018-07-14T12:32:48.536Z,3.23
2018-07-14T12:35:16.946Z,4.13
2018-07-14T12:37:45.386Z,5.05
2018-07-14T12:40:14.191Z,2.80
2018-07-14T12:42:42.669Z,2.12
2018-07-14T12:45:11.120Z,3.00
2018-07-14T12:47:39.546Z,3.70
2018-07-14T12:50:08.647Z,2.17
2018-07-14T12:52:37.607Z,2.30
2018-07-14T12:55:06.343Z,2.97
2018-07-14T12:57:34.811Z,2.40
2018-07-14T13:00:03.495Z,2.23
2018-07-14T13:02:31.998Z,2.40
2018-07-14T13:05:00.458Z,2.33
2018-07-14T13:07:28.910Z,2.73
2018-07-14T13:09:57.369Z,2.13
2018-07-14T13:12:25.784Z,2.87
2018-07-14T13:14:54.477Z,2.60
2018-07-14T13:17:22.895Z,2.53
2018-07-14T13:19:51.336Z,3.20
2018-07-14T13:22:19.843Z,2.90
2018-07-14T13:24:48.255Z,2.87
2018-07-14T13:27:16.735Z,3.87
2018-07-14T13:29:45.881Z,3.70
2018-07-14T13:32:14.304Z,4.07
2018-07-14T13:34:42.768Z,3.40
2018-07-14T13:37:11.200Z,3.50
2018-07-14T13:39:39.618Z,3.30
2018-07-14T13:42:08.099Z,3.57
2018-07-14T13:44:36.619Z,3.57
2018-07-14T13:47:05.433Z,3.87
2018-07-14T13:49:33.841Z,3.83
2018-07-14T13:52:02.307Z,3.97
2018-07-14T13:54:31.329Z,3.73
2018-07-14T13:56:59.767Z,3.70
2018-07-14T13:59:28.210Z,3.53
2018-07-14T14:01:56.679Z,3.67
2018-07-14T14:04:25.107Z,4.10
2018-07-14T14:06:53.728Z,3.10
2018-07-14T14:09:22.318Z,3.10
2018-07-14T14:11:50.748Z,3.80
2018-07-14T14:14:19.263Z,3.50
2018-07-14T14:16:47.725Z,2.70
2018-07-14T14:19:16.217Z,2.20
2018-07-14T14:21:44.704Z,2.50
2018-07-14T14:24:13.181Z,2.20
2018-07-14T14:26:41.661Z,1.90
2018-07-14T14:29:10.077Z,2.00
2018-07-14T14:31:38.514Z,2.27
2018-07-14T14:34:07.011Z,2.10
2018-07-14T14:36:35.453Z,1.80
2018-07-14T14:39:04.365Z,2.33
2018-07-14T14:41:32.764Z,2.00
2018-07-14T14:44:01.219Z,1.80
2018-07-14T14:46:29.664Z,1.93
2018-07-14T14:48:58.380Z,1.90
2018-07-14T14:51:27.059Z,2.33
2018-07-14T14:53:55.519Z,2.00
2018-07-14T14:56:24.068Z,2.30
2018-07-14T14:58:52.571Z,2.20
2018-07-14T15:01:21.084Z,2.30
2018-07-14T15:03:49.596Z,2.90
2018-07-14T15:06:18.196Z,2.20
2018-07-14T15:08:46.653Z,2.90
2018-07-14T15:11:15.057Z,2.40
2018-07-14T15:13:43.581Z,2.80
2018-07-14T15:16:12.030Z,3.05
2018-07-14T15:18:40.508Z,3.30
2018-07-14T15:21:08.918Z,3.80
2018-07-14T15:23:37.371Z,4.27
2018-07-14T15:26:06.166Z,4.00
2018-07-14T15:28:34.590Z,4.13
2018-07-14T15:31:03.140Z,4.20
2018-07-14T15:33:31.792Z,4.50
2018-07-14T15:36:00.239Z,6.17
2018-07-14T15:38:28.715Z,6.37
2018-07-14T15:40:57.487Z,4.12
2018-07-14T15:43:25.932Z,4.20
2018-07-14T15:45:54.386Z,4.70
2018-07-14T15:48:22.831Z,4.30
2018-07-14T15:50:51.310Z,4.13
2018-07-14T15:53:19.711Z,4.30
2018-07-14T15:55:48.196Z,4.30
2018-07-14T15:58:16.639Z,3.75
2018-07-14T16:00:45.120Z,3.77
2018-07-14T16:03:13.557Z,3.50
2018-07-14T16:05:42.457Z,4.20
2018-07-14T16:08:11.164Z,3.97
2018-07-14T16:10:39.627Z,4.90
2018-07-14T16:13:08.531Z,4.00
2018-07-14T16:15:36.972Z,4.53
2018-07-14T16:18:05.864Z,4.17
2018-07-14T16:20:34.273Z,4.10
2018-07-14T16:23:02.765Z,5.57
2018-07-14T16:25:31.217Z,3.43
2018-07-14T16:27:59.633Z,3.50
2018-07-14T16:30:28.238Z,3.60
2018-07-14T16:32:56.867Z,3.77
2018-07-14T16:35:25.340Z,4.03
2018-07-14T16:37:53.763Z,3.27
2018-07-14T16:40:22.203Z,3.50
2018-07-14T16:42:50.652Z,3.90
2018-07-14T16:45:19.083Z,3.40
2018-07-14T16:47:47.584Z,3.37
2018-07-14T16:50:16.057Z,2.53
2018-07-14T16:52:44.465Z,3.00
2018-07-14T16:55:12.955Z,2.98
2018-07-14T16:57:41.498Z,3.00
2018-07-14T17:00:10.193Z,2.77
2018-07-14T17:02:38.594Z,2.87
2018-07-14T17:05:07.038Z,12.50
2018-07-14T17:07:35.507Z,8.73
2018-07-14T17:10:04.011Z,3.47
2018-07-14T17:12:32.451Z,3.23
2018-07-14T17:15:00.903Z,3.20
2018-07-14T17:17:29.336Z,2.80
2018-07-14T17:19:57.790Z,2.87
2018-07-14T17:22:26.264Z,2.50
2018-07-14T17:24:54.774Z,2.80
2018-07-14T17:27:23.183Z,2.65
2018-07-14T17:29:51.796Z,3.03
2018-07-14T17:32:20.259Z,2.60
2018-07-14T17:34:48.708Z,2.47
2018-07-14T17:37:17.351Z,2.65
2018-07-14T17:39:46.051Z,5.03
2018-07-14T17:42:14.493Z,3.43
2018-07-14T17:44:42.939Z,2.93
2018-07-14T17:47:11.638Z,3.00
2018-07-14T17:49:40.320Z,3.80
2018-07-14T17:52:08.987Z,3.80
2018-07-14T17:54:37.262Z,3.33
2018-07-14T17:57:06.264Z,3.23
2018-07-14T17:59:34.707Z,2.70
2018-07-14T18:02:03.214Z,6.80
2018-07-14T18:04:31.669Z,3.72
2018-07-14T18:07:00.125Z,4.80
2018-07-14T18:09:28.596Z,5.00
2018-07-14T18:11:57.302Z,3.97
2018-07-14T18:14:25.743Z,3.72
2018-07-14T18:16:54.164Z,4.10
2018-07-14T18:19:22.630Z,3.80
2018-07-14T18:21:51.111Z,4.92
2018-07-14T18:24:19.540Z,4.00
2018-07-14T18:26:48.006Z,3.60
2018-07-14T18:29:17.149Z,19.82
2018-07-14T18:31:45.823Z,4.00
2018-07-14T18:34:14.277Z,5.03
2018-07-14T18:36:42.723Z,4.00
2018-07-14T18:39:11.131Z,4.00
2018-07-14T18:41:39.585Z,5.07
2018-07-14T18:44:08.015Z,4.90
2018-07-14T18:46:36.487Z,4.67
2018-07-14T18:49:05.027Z,4.53
2018-07-14T18:51:33.532Z,4.70
2018-07-14T18:54:02.006Z,4.70
2018-07-14T18:56:30.469Z,4.57
2018-07-14T18:58:58.890Z,5.27
2018-07-14T19:01:27.351Z,6.40
2018-07-14T19:03:55.763Z,5.23
2018-07-14T19:06:24.219Z,5.17
2018-07-14T19:08:52.677Z,6.57
2018-07-14T19:11:21.131Z,4.90
2018-07-14T19:13:50.141Z,5.83
2018-07-14T19:16:18.591Z,4.70
2018-07-14T19:18:47.110Z,6.07
2018-07-14T19:21:15.724Z,5.30
2018-07-14T19:23:44.194Z,5.50
2018-07-14T19:26:13.027Z,6.73
2018-07-14T19:28:41.343Z,6.53
2018-07-14T19:31:09.795Z,6.10
2018-07-14T19:33:38.204Z,6.60
2018-07-14T19:36:06.668Z,5.40
2018-07-14T19:38:35.078Z,6.40
2018-07-14T19:41:03.650Z,6.57
2018-07-14T19:43:32.137Z,7.00
2018-07-14T19:46:00.786Z,7.93
2018-07-14T19:48:29.275Z,9.20
2018-07-14T19:50:58.217Z,7.37
2018-07-14T19:53:26.931Z,9.23
2018-07-14T19:55:55.685Z,11.53
2018-07-14T19:58:24.081Z,14.50
2018-07-14T20:00:53.835Z,7.30
2018-07-14T20:03:22.272Z,7.97
2018-07-14T20:05:51.038Z,7.70
2018-07-14T20:08:19.754Z,8.87
2018-07-14T20:10:48.240Z,8.77
2018-07-14T20:13:16.740Z,9.43
2018-07-14T20:15:45.183Z,8.47
2018-07-14T20:18:13.610Z,7.87
2018-07-14T20:20:42.076Z,7.77
2018-07-14T20:23:11.028Z,7.63
2018-07-14T20:25:39.629Z,7.80
2018-07-14T20:28:08.027Z,7.80
2018-07-14T20:30:36.488Z,8.17
2018-07-14T20:33:04.937Z,8.08
2018-07-14T20:35:33.348Z,8.20
2018-07-14T20:38:01.999Z,8.43
2018-07-14T20:40:30.449Z,9.53
2018-07-14T20:42:58.905Z,9.05
2018-07-14T20:45:30.220Z,8.60
2018-07-14T20:47:58.611Z,8.30
2018-07-14T20:50:27.525Z,8.37
2018-07-14T20:52:55.964Z,9.03
2018-07-14T20:55:24.411Z,9.30
2018-07-14T20:57:52.990Z,9.30
2018-07-14T21:00:21.780Z,8.97
2018-07-14T21:02:50.275Z,12.03
2018-07-14T21:05:18.791Z,11.25
2018-07-14T21:07:47.781Z,9.60
2018-07-14T21:10:16.585Z,8.70
2018-07-14T21:12:45.361Z,8.63
2018-07-14T21:15:14.124Z,8.60
2018-07-14T21:17:42.721Z,7.83
2018-07-14T21:20:11.254Z,7.20
2018-07-14T21:22:39.712Z,7.20
2018-07-14T21:25:08.519Z,6.90
2018-07-14T21:27:37.195Z,8.20
2018-07-14T21:30:05.740Z,8.00
2018-07-14T21:32:34.232Z,8.15
2018-07-14T21:35:02.680Z,8.23
2018-07-14T21:37:31.120Z,8.67
2018-07-14T21:39:59.762Z,12.93
2018-07-14T21:42:28.445Z,9.13
2018-07-14T21:44:56.876Z,8.47
2018-07-14T21:47:25.736Z,8.80
2018-07-14T21:50:56.929Z,8.50
2018-07-14T21:53:25.361Z,8.00
2018-07-14T21:55:53.797Z,8.87
2018-07-14T21:58:22.227Z,9.40
2018-07-14T22:00:55.873Z,9.10
2018-07-14T22:03:24.291Z,8.80
2018-07-14T22:05:53.123Z,8.93
2018-07-14T22:08:21.584Z,9.80
2018-07-14T22:10:50.148Z,8.15
2018-07-14T22:13:18.589Z,9.13
2018-07-14T22:15:47.044Z,8.33
2018-07-14T22:18:15.543Z,9.20
2018-07-14T22:20:44.020Z,10.03
2018-07-14T22:23:12.522Z,9.33
2018-07-14T22:25:40.972Z,9.63
2018-07-14T22:28:09.475Z,10.33
2018-07-14T22:30:37.960Z,10.33
2018-07-14T22:33:06.405Z,11.17
2018-07-14T22:35:34.860Z,12.23
2018-07-14T22:38:03.357Z,11.45
2018-07-14T22:40:31.832Z,9.87
2018-07-14T22:43:00.561Z,10.30
2018-07-14T22:45:29.042Z,11.00
2018-07-14T22:47:58.055Z,11.50
2018-07-14T22:50:26.564Z,11.00
2018-07-14T22:52:55.024Z,10.73
2018-07-14T22:55:23.499Z,11.73
2018-07-14T22:57:51.972Z,11.67
2018-07-14T23:00:20.412Z,12.60
2018-07-14T23:02:48.883Z,13.33
2018-07-14T23:05:17.419Z,13.17
2018-07-14T23:07:45.870Z,13.27
2018-07-14T23:10:14.317Z,14.20
2018-07-14T23:12:42.821Z,13.90
2018-07-14T23:15:11.238Z,14.40
2018-07-14T23:17:39.678Z,13.07
2018-07-14T23:20:08.235Z,13.40
2018-07-14T23:24:06.108Z,12.20
2018-07-14T23:26:34.609Z,13.30
2018-07-14T23:29:03.085Z,12.10
2018-07-14T23:31:31.575Z,12.63
2018-07-14T23:34:00.011Z,12.63
2018-07-14T23:36:28.571Z,13.30
2018-07-14T23:38:57.022Z,13.60
2018-07-14T23:41:25.727Z,13.60
2018-07-14T23:43:54.721Z,12.27
2018-07-14T23:46:23.768Z,12.40
2018-07-14T23:48:52.494Z,12.23
2018-07-14T23:51:20.968Z,13.33
2018-07-14T23:53:49.452Z,14.67
2018-07-14T23:56:17.977Z,14.10
2018-07-14T23:58:46.903Z,14.40
